Scottville, North Carolina
Current Conditions -  °F | °C
As of 12:55 PM on Monday 24 Nov 2014 (Local Time) from KGEV Reporting Station
Clear Clear  
Wind Chill: 62°   Ceiling: Unl
Heat Index: 62°   Visibility: 10mi
Dew Point: 46°   Wind: 6mph
Humidity: 55%   Direction: 160°SSE
Pressure: 29.75"   Gusts: NA
Location:  36.48°N, 81.31°W
Report Text: KGEV 241755Z AUTO 16005KT 10SM CLR 17/08 A2975 RMK AO2 T01650075 10166 20084
Loading
Personal Weather Stations






























Interactive Weather Map New forecast layout! Learn more

10-Day Weather Forecast

Advertisements
Track Severe Weather on mobile